createdAt,value
2022-08-26T00:04:16.256Z,17.23
2022-08-26T00:09:18.096Z,17.28
2022-08-26T00:14:20.506Z,17.28
2022-08-26T00:19:22.578Z,17.28
2022-08-26T00:24:24.362Z,17.20
2022-08-26T00:29:27.027Z,17.14
2022-08-26T00:34:28.904Z,17.07
2022-08-26T00:39:31.319Z,17.03
2022-08-26T00:44:32.880Z,17.01
2022-08-26T00:49:39.672Z,16.83
2022-08-26T00:54:46.991Z,16.71
2022-08-26T00:59:54.307Z,16.66
2022-08-26T01:05:00.728Z,16.63
2022-08-26T01:10:07.632Z,16.61
2022-08-26T01:15:13.667Z,16.56
2022-08-26T01:20:34.066Z,16.49
2022-08-26T01:25:40.560Z,16.36
2022-08-26T01:30:46.722Z,16.23
2022-08-26T01:35:50.183Z,16.15
2022-08-26T01:40:54.481Z,16.18
2022-08-26T01:45:56.966Z,16.33
2022-08-26T01:51:01.198Z,16.33
2022-08-26T01:56:04.084Z,16.22
2022-08-26T02:01:07.625Z,16.18
2022-08-26T02:06:11.534Z,16.14
2022-08-26T02:11:15.533Z,16.10
2022-08-26T02:16:23.767Z,16.02
2022-08-26T02:21:25.534Z,15.90
2022-08-26T02:26:27.293Z,15.80
2022-08-26T02:31:29.454Z,15.75
2022-08-26T02:36:31.144Z,15.70
2022-08-26T02:41:33.456Z,15.70
2022-08-26T02:46:35.402Z,15.67
2022-08-26T02:51:38.812Z,15.56
2022-08-26T02:56:41.831Z,15.50
2022-08-26T03:01:45.161Z,15.44
2022-08-26T03:06:52.643Z,15.40
2022-08-26T03:11:55.469Z,15.37
2022-08-26T03:16:59.554Z,15.30
2022-08-26T03:22:02.278Z,15.25
2022-08-26T03:27:07.391Z,15.26
2022-08-26T03:32:09.715Z,15.21
2022-08-26T03:37:12.195Z,15.20
2022-08-26T03:42:14.924Z,15.08
2022-08-26T03:47:17.354Z,15.02
2022-08-26T03:52:18.979Z,15.00
2022-08-26T03:57:20.764Z,14.95
2022-08-26T04:02:24.375Z,14.90
2022-08-26T04:07:27.172Z,14.87
2022-08-26T04:12:29.521Z,14.82
2022-08-26T04:17:31.340Z,14.83
2022-08-26T04:22:33.874Z,14.81
2022-08-26T04:27:35.456Z,14.71
2022-08-26T04:32:37.508Z,14.67
2022-08-26T04:37:43.125Z,14.68
2022-08-26T04:42:44.793Z,14.66
2022-08-26T04:47:46.802Z,14.65
2022-08-26T04:52:48.352Z,14.75
2022-08-26T04:57:49.913Z,14.90
2022-08-26T05:02:51.907Z,14.98
2022-08-26T05:07:53.502Z,15.07
2022-08-26T05:12:55.510Z,15.20
2022-08-26T05:17:59.196Z,15.31
2022-08-26T05:23:02.716Z,15.37
2022-08-26T05:28:04.602Z,15.59
2022-08-26T05:33:09.094Z,16.38
2022-08-26T05:38:15.514Z,17.18
2022-08-26T05:43:17.558Z,17.92
2022-08-26T05:48:24.181Z,18.53
2022-08-26T05:53:26.321Z,19.11
2022-08-26T05:58:28.056Z,19.69
2022-08-26T06:03:31.802Z,20.18
2022-08-26T06:08:34.550Z,20.83
2022-08-26T06:13:37.716Z,21.36
2022-08-26T06:18:42.427Z,21.87
2022-08-26T06:24:04.748Z,21.71
2022-08-26T06:29:07.190Z,21.37
2022-08-26T06:34:10.961Z,21.49
2022-08-26T06:39:14.818Z,21.94
2022-08-26T06:44:16.469Z,22.39
2022-08-26T06:49:18.530Z,22.74
2022-08-26T06:54:31.726Z,22.98
2022-08-26T06:59:33.472Z,23.09
2022-08-26T07:04:35.917Z,23.08
2022-08-26T07:09:37.517Z,23.15
2022-08-26T07:14:39.362Z,23.60
2022-08-26T07:19:40.955Z,24.00
2022-08-26T07:24:42.751Z,24.26
2022-08-26T07:29:46.258Z,24.67
2022-08-26T07:34:48.265Z,25.07
2022-08-26T07:39:49.996Z,25.33
2022-08-26T07:44:51.596Z,25.69
2022-08-26T07:49:55.714Z,26.10
2022-08-26T07:54:59.384Z,26.65
2022-08-26T08:00:02.056Z,27.14
2022-08-26T08:05:16.924Z,27.59
2022-08-26T08:10:22.718Z,28.10
2022-08-26T08:15:28.808Z,28.54
2022-08-26T08:20:30.552Z,28.91
2022-08-26T08:25:34.386Z,29.13
2022-08-26T08:30:39.370Z,29.39
2022-08-26T08:35:42.444Z,29.57
2022-08-26T08:40:45.982Z,29.52
2022-08-26T08:45:52.587Z,29.29
2022-08-26T08:51:39.724Z,29.18
2022-08-26T08:56:55.353Z,29.12
2022-08-26T09:02:03.373Z,28.93
2022-08-26T09:07:08.857Z,29.07
2022-08-26T09:12:20.395Z,29.24
2022-08-26T09:17:43.835Z,29.21
2022-08-26T09:22:46.119Z,29.24
2022-08-26T09:27:50.701Z,29.39
2022-08-26T09:33:00.043Z,29.34
2022-08-26T09:38:02.674Z,29.37
2022-08-26T09:43:22.882Z,29.36
2022-08-26T09:48:35.515Z,29.37
2022-08-26T09:53:52.260Z,29.58
2022-08-26T09:58:57.191Z,29.91
2022-08-26T10:04:12.233Z,30.00
2022-08-26T10:09:18.179Z,29.94
2022-08-26T10:14:29.200Z,30.30
2022-08-26T10:19:55.681Z,30.39
2022-08-26T10:25:03.342Z,30.62
2022-08-26T10:30:11.065Z,30.58
2022-08-26T10:35:15.119Z,30.40
2022-08-26T10:40:44.992Z,30.21
2022-08-26T10:45:54.198Z,30.35
2022-08-26T10:50:56.972Z,30.60
2022-08-26T10:56:18.857Z,30.46
2022-08-26T11:01:47.172Z,30.37
2022-08-26T11:07:31.915Z,30.27
2022-08-26T11:12:36.423Z,30.36
2022-08-26T11:17:44.781Z,30.37
2022-08-26T11:22:47.824Z,30.57
2022-08-26T11:27:52.350Z,30.60
2022-08-26T11:32:58.401Z,30.95
2022-08-26T11:38:12.941Z,31.06
2022-08-26T11:43:19.435Z,30.90
2022-08-26T11:48:43.247Z,30.93
2022-08-26T11:53:45.043Z,30.58
2022-08-26T11:58:58.003Z,30.38
2022-08-26T12:04:01.092Z,30.31
2022-08-26T12:09:10.512Z,30.49
2022-08-26T12:14:21.688Z,30.91
2022-08-26T12:19:32.774Z,31.22
2022-08-26T12:24:35.340Z,31.59
2022-08-26T12:29:37.212Z,32.05
2022-08-26T12:34:43.767Z,32.08
2022-08-26T12:39:45.866Z,31.55
2022-08-26T12:45:06.456Z,31.27
2022-08-26T12:50:15.269Z,31.05
2022-08-26T12:55:19.564Z,30.89
2022-08-26T13:00:28.436Z,31.11
2022-08-26T13:05:35.591Z,31.51
2022-08-26T13:10:39.805Z,31.65
2022-08-26T13:15:41.432Z,31.52
2022-08-26T13:20:44.116Z,31.32
2022-08-26T13:25:45.692Z,31.07
2022-08-26T13:30:49.618Z,31.12
2022-08-26T13:35:51.209Z,31.02
2022-08-26T13:40:52.779Z,30.97
2022-08-26T13:45:54.584Z,30.88
2022-08-26T13:50:56.225Z,30.55
2022-08-26T13:56:01.838Z,30.58
2022-08-26T14:01:03.661Z,30.79
2022-08-26T14:06:05.341Z,30.90
2022-08-26T14:11:07.846Z,30.67
2022-08-26T14:16:13.609Z,30.72
2022-08-26T14:21:15.266Z,30.91
2022-08-26T14:26:28.110Z,31.26
2022-08-26T14:31:33.016Z,31.22
2022-08-26T14:36:35.704Z,31.00
2022-08-26T14:41:54.070Z,30.84
2022-08-26T14:46:57.345Z,30.39
2022-08-26T14:51:59.008Z,29.81
2022-08-26T14:57:04.819Z,29.41
2022-08-26T15:02:08.122Z,29.25
2022-08-26T15:07:09.764Z,28.98
2022-08-26T15:12:14.372Z,28.67
2022-08-26T15:17:15.931Z,28.64
2022-08-26T15:22:17.516Z,28.72
2022-08-26T15:27:19.483Z,28.74
2022-08-26T15:32:21.097Z,28.84
2022-08-26T15:37:22.650Z,28.81
2022-08-26T15:42:24.232Z,28.76
2022-08-26T15:47:25.781Z,28.75
2022-08-26T15:52:30.074Z,28.56
2022-08-26T15:57:32.104Z,28.36
2022-08-26T16:08:39.315Z,28.27
2022-08-26T16:13:40.995Z,28.20
2022-08-26T16:18:43.186Z,28.17
2022-08-26T16:23:45.586Z,28.15
2022-08-26T16:28:47.740Z,27.98
2022-08-26T16:33:51.465Z,27.50
2022-08-26T16:38:56.056Z,27.00
2022-08-26T16:43:58.465Z,26.90
2022-08-26T16:49:03.734Z,26.77
2022-08-26T16:54:06.992Z,26.65
2022-08-26T16:59:11.452Z,26.45
2022-08-26T17:04:13.046Z,26.24
2022-08-26T17:09:14.597Z,26.04
2022-08-26T17:14:16.403Z,25.51
2022-08-26T17:19:20.777Z,24.65
2022-08-26T17:24:22.325Z,24.22
2022-08-26T17:29:23.855Z,23.87
2022-08-26T17:34:25.797Z,23.46
2022-08-26T17:39:27.386Z,22.91
2022-08-26T17:44:29.522Z,22.07
2022-08-26T17:49:31.579Z,20.77
2022-08-26T17:54:33.178Z,19.53
2022-08-26T17:59:34.769Z,18.92
2022-08-26T18:04:36.569Z,18.69
2022-08-26T18:09:38.120Z,18.60
2022-08-26T18:14:39.642Z,18.63
2022-08-26T18:19:41.176Z,18.63
2022-08-26T18:24:42.735Z,18.66
2022-08-26T18:29:59.979Z,18.65
2022-08-26T18:35:02.196Z,18.60
2022-08-26T18:40:09.111Z,18.68
2022-08-26T18:45:16.070Z,18.69
2022-08-26T18:50:18.009Z,18.74
2022-08-26T18:55:19.613Z,18.85
2022-08-26T19:00:21.193Z,18.94
2022-08-26T19:05:22.875Z,18.93
2022-08-26T19:10:24.912Z,18.94
2022-08-26T19:15:26.454Z,18.89
2022-08-26T19:20:27.986Z,18.87
2022-08-26T19:25:29.560Z,18.88
2022-08-26T19:30:31.234Z,18.83
2022-08-26T19:35:34.602Z,18.81
2022-08-26T19:40:37.586Z,18.69
2022-08-26T19:45:40.222Z,18.65
2022-08-26T19:50:42.261Z,18.65
2022-08-26T19:55:43.825Z,18.63
2022-08-26T20:00:45.406Z,18.76
2022-08-26T20:05:47.242Z,18.73
2022-08-26T20:10:48.990Z,18.71
2022-08-26T20:15:50.550Z,18.74
2022-08-26T20:21:10.848Z,18.81
2022-08-26T20:26:13.227Z,18.85
2022-08-26T20:31:14.849Z,18.86
2022-08-26T20:36:16.844Z,18.87
2022-08-26T20:41:18.537Z,18.91
2022-08-26T20:46:24.190Z,18.93
2022-08-26T20:51:27.031Z,18.91
2022-08-26T20:56:28.565Z,18.94
2022-08-26T21:01:34.619Z,18.97
2022-08-26T21:06:38.271Z,18.95
2022-08-26T21:11:42.707Z,18.83
2022-08-26T21:16:45.485Z,18.83
2022-08-26T21:21:48.350Z,18.80
2022-08-26T21:26:50.027Z,18.79
2022-08-26T21:31:52.035Z,18.80
2022-08-26T21:36:53.607Z,18.85
2022-08-26T21:41:55.154Z,18.87
2022-08-26T21:46:56.697Z,18.81
2022-08-26T21:51:58.221Z,18.74
2022-08-26T21:56:59.851Z,18.63
2022-08-26T22:02:01.578Z,18.51
2022-08-26T22:07:03.507Z,18.53
2022-08-26T22:12:08.923Z,18.57
2022-08-26T22:17:10.453Z,18.61
2022-08-26T22:22:13.005Z,18.65
2022-08-26T22:27:14.578Z,18.61
2022-08-26T22:32:18.538Z,18.60
2022-08-26T22:37:20.081Z,18.60
2022-08-26T22:42:21.669Z,18.63
2022-08-26T22:47:23.506Z,18.67
2022-08-26T22:52:25.355Z,18.66
2022-08-26T22:57:26.977Z,18.62
2022-08-26T23:02:28.551Z,18.59
2022-08-26T23:07:30.090Z,18.50
2022-08-26T23:12:32.530Z,18.47
2022-08-26T23:17:35.226Z,18.46
2022-08-26T23:22:37.515Z,18.45
2022-08-26T23:27:41.337Z,18.32
2022-08-26T23:32:42.923Z,18.35
2022-08-26T23:37:46.056Z,18.34
2022-08-26T23:42:48.809Z,18.26
2022-08-26T23:47:50.653Z,18.22
2022-08-26T23:53:08.634Z,18.27
2022-08-26T23:58:11.346Z,18.22
